createdAt,value
2023-02-08T06:18:50.422Z,5.78
2023-02-08T06:28:50.415Z,7.37
2023-02-08T06:38:51.403Z,5.95
2023-02-08T06:48:50.496Z,5.91
2023-02-08T06:58:50.574Z,5.13
2023-02-08T07:08:50.612Z,5.55
2023-02-08T07:18:50.562Z,7.24
2023-02-08T07:28:50.512Z,3.64
2023-02-08T07:38:50.655Z,5.87
2023-02-08T07:48:50.499Z,3.72
2023-02-08T07:58:50.697Z,1.70
2023-02-08T08:08:50.790Z,6.65
2023-02-08T08:18:50.791Z,7.40
2023-02-08T08:28:50.764Z,9.14
2023-02-08T08:38:50.913Z,8.44
2023-02-08T08:48:51.158Z,11.42
2023-02-08T08:58:51.022Z,10.13
2023-02-08T09:08:51.873Z,11.53
2023-02-08T09:18:51.172Z,11.13
2023-02-08T09:28:51.032Z,10.24
2023-02-08T09:38:51.202Z,10.61
2023-02-08T09:48:51.019Z,11.13
2023-02-08T09:58:51.096Z,9.58
2023-02-08T10:08:51.151Z,12.51
2023-02-08T10:18:51.066Z,11.08
2023-02-08T10:28:52.374Z,9.95
2023-02-08T10:38:51.194Z,8.53
2023-02-08T10:48:51.313Z,10.73
2023-02-08T10:58:51.092Z,9.44
2023-02-08T11:08:51.223Z,12.43
2023-02-08T11:18:51.281Z,9.92
2023-02-08T11:28:51.152Z,11.13
2023-02-08T11:38:51.233Z,12.95
2023-02-08T11:48:51.348Z,10.97
2023-02-08T11:58:51.215Z,9.63
2023-02-08T12:08:51.198Z,10.10
2023-02-08T12:18:51.323Z,11.85
2023-02-08T12:28:51.267Z,12.54
2023-02-08T12:38:51.190Z,10.82
2023-02-08T12:48:51.219Z,12.97
2023-02-08T12:58:53.518Z,11.88
2023-02-08T13:08:51.101Z,11.87
2023-02-08T13:18:51.190Z,15.68
2023-02-08T13:28:51.110Z,13.32
2023-02-08T13:38:51.177Z,12.52
2023-02-08T13:48:51.097Z,15.29
2023-02-08T13:58:51.100Z,13.92
2023-02-08T14:08:51.055Z,10.71
2023-02-08T14:18:51.133Z,17.76
2023-02-08T14:28:51.140Z,15.40
2023-02-08T14:38:51.134Z,10.07
2023-02-08T14:48:51.278Z,8.96
2023-02-08T14:58:51.197Z,10.33
2023-02-08T15:08:51.313Z,6.23
2023-02-08T15:18:51.199Z,8.25
2023-02-08T15:28:51.173Z,8.55
2023-02-08T15:38:51.232Z,9.78
2023-02-08T15:48:51.151Z,9.03
2023-02-08T15:58:51.304Z,5.69
2023-02-08T16:08:51.296Z,7.69
2023-02-08T16:18:51.237Z,10.28
2023-02-08T16:28:51.419Z,9.02
2023-02-08T16:38:51.287Z,12.17
2023-02-08T16:48:51.218Z,11.25
2023-02-08T16:58:51.317Z,9.41
2023-02-08T17:08:51.343Z,9.92
2023-02-08T17:18:51.203Z,8.75
2023-02-08T17:28:51.363Z,10.32
2023-02-08T17:38:51.256Z,8.46
2023-02-08T17:48:51.335Z,7.21
2023-02-08T17:58:53.471Z,9.50
2023-02-08T18:08:51.242Z,6.82
2023-02-08T18:18:51.313Z,8.36
2023-02-08T18:28:51.268Z,10.37
2023-02-08T18:38:51.202Z,11.67
2023-02-08T18:48:51.278Z,10.00
2023-02-08T18:58:51.240Z,8.87
2023-02-08T19:08:51.368Z,7.28
2023-02-08T19:18:51.454Z,8.76
